KLHB/LHB METAR and TAF weather

Enter ICAO airport designator
Station Type Date Time Source
KLHB METAR 2020/04/05 13:15 UTC NOAA

KLHB 051315Z AUTO 34005KT 2 1/2SM BR OVC003 11/10 A3010 RMK AO2 T01080103


Station Type Date Time Source
KLHB Decoded METAR 2020/04/05 13:15 UTC NOAA

Hearne, Hearne Municipal Airport, TX, United States (KLHB) 30-52-18N 096-37-20W
Apr 05, 2020 - 09:15 AM EDT / 2020.04.05 1315 UTC
Wind: from the NNW (340 degrees) at 6 MPH (5 KT):0
Visibility: 2 1/2 mile(s):0
Sky conditions: overcast
Weather: mist
Temperature: 51.4 F (10.8 C)
Dew Point: 50.5 F (10.3 C)
Relative Humidity: 96%
Pressure (altimeter): 30.1 in. Hg (1019 hPa)
ob: KLHB 051315Z AUTO 34005KT 2 1/2SM BR OVC003 11/10 A3010 RMK AO2 T01080103
cycle: 13

Station Type Date Time Source
KLHB TAF UTC NOAA

Error!

Example: see airport list